Time;durP1;ratioP1;P1;durP2;ratioP2;P2;SDS_P1;SDS_P2;PMS_P1;PMS_P2;Temp;Humidity;BMP_temperature;BMP_pressure;BME280_temperature;BME280_humidity;BME280_pressure;Samples;Min_cycle;Max_cycle;Signal;HPM_P1;HPM_P2
2022/05/11 00:00:41;;;;;;;4.30;2.80;;;13.50;99.90;;;;;;6105756;23;20072;-89
2022/05/11 00:03:07;;;;;;;4.57;2.67;;;13.70;99.90;;;;;;6105281;23;20022;-89
2022/05/11 00:05:37;;;;;;;6.32;2.78;;;13.60;99.90;;;;;;6105416;23;20323;-89
2022/05/11 00:08:03;;;;;;;6.95;3.15;;;13.60;99.90;;;;;;6105029;23;20450;-90
2022/05/11 00:10:32;;;;;;;4.10;2.63;;;13.20;99.90;;;;;;6105029;23;20052;-90
2022/05/11 00:12:58;;;;;;;4.35;2.90;;;13.50;99.90;;;;;;6105641;23;20516;-90
2022/05/11 00:15:28;;;;;;;4.30;2.97;;;13.60;99.90;;;;;;6105171;23;20014;-90
2022/05/11 00:17:57;;;;;;;7.88;2.85;;;13.60;99.90;;;;;;6104702;23;20445;-90
2022/05/11 00:20:26;;;;;;;6.78;2.90;;;13.70;99.90;;;;;;6129301;23;20111;-90
2022/05/11 00:22:56;;;;;;;4.75;2.63;;;13.60;99.90;;;;;;6105475;23;20442;-90
2022/05/11 00:25:25;;;;;;;7.00;2.92;;;13.70;99.90;;;;;;6081698;23;20014;-90
2022/05/11 00:27:56;;;;;;;5.70;2.55;;;13.60;99.90;;;;;;6081769;23;20057;-90
2022/05/11 00:30:26;;;;;;;3.33;2.45;;;13.60;99.90;;;;;;6103950;23;20021;-90
2022/05/11 00:33:02;;;;;;;2.65;2.38;;;13.60;99.90;;;;;;6105602;23;20060;-90
2022/05/11 00:35:33;;;;;;;4.90;2.53;;;13.50;99.90;;;;;;6105278;23;20080;-90
2022/05/11 00:38:02;;;;;;;6.15;2.55;;;13.60;99.90;;;;;;6080879;23;20028;-90
2022/05/11 00:40:37;;;;;;;4.00;2.97;;;13.60;99.90;;;;;;6105273;23;20021;-90
2022/05/11 00:43:05;;;;;;;3.38;2.60;;;13.60;99.90;;;;;;6106777;23;20017;-90
2022/05/11 00:45:34;;;;;;;3.03;2.22;;;12.70;99.90;;;;;;6104658;23;20018;-90
2022/05/11 00:50:53;;;;;;;3.30;2.28;;;13.60;99.90;;;;;;6128922;23;20040;-90
2022/05/11 00:53:22;;;;;;;3.63;2.55;;;13.50;99.90;;;;;;6104653;23;20096;-91
2022/05/11 00:55:51;;;;;;;2.83;2.03;;;13.50;99.90;;;;;;6081631;23;20461;-90
2022/05/11 00:58:23;;;;;;;5.65;3.13;;;13.50;99.90;;;;;;6104869;23;20076;-90
2022/05/11 01:00:51;;;;;;;5.70;2.38;;;12.60;99.90;;;;;;6105288;23;20096;-90
2022/05/11 01:03:25;;;;;;;4.30;1.98;;;12.50;99.90;;;;;;6104265;23;20048;-90
2022/05/11 01:06:03;;;;;;;5.30;3.10;;;13.40;99.90;;;;;;6081670;23;20017;-89
2022/05/11 01:08:30;;;;;;;5.00;2.10;;;13.30;99.90;;;;;;6104209;23;20108;-89
2022/05/11 01:11:00;;;;;;;4.68;2.17;;;13.40;99.90;;;;;;6104537;23;20029;-90
2022/05/11 01:13:26;;;;;;;6.00;2.65;;;13.40;99.90;;;;;;6104725;23;20100;-89
2022/05/11 01:15:55;;;;;;;3.43;2.17;;;13.30;99.90;;;;;;6105394;23;20049;-90
2022/05/11 01:18:24;;;;;;;2.45;1.88;;;13.20;99.90;;;;;;6105200;23;20434;-89
2022/05/11 01:20:51;;;;;;;4.30;3.00;;;13.20;99.90;;;;;;6129347;23;20017;-90
2022/05/11 01:23:33;;;;;;;5.15;2.40;;;13.20;99.90;;;;;;6104908;23;20021;-89
2022/05/11 01:26:00;;;;;;;2.05;1.88;;;14.10;99.90;;;;;;6104889;23;20017;-89
2022/05/11 01:28:26;;;;;;;4.28;2.00;;;13.20;99.90;;;;;;6103602;23;20021;-93
2022/05/11 01:31:15;;;;;;;;;;;;;;;;;;;;;
2022/05/11 01:33:45;;;;;;;1.67;1.58;;;13.20;99.90;;;;;;6128677;23;20037;-89
2022/05/11 01:36:26;;;;;;;4.07;2.15;;;13.20;99.90;;;;;;6104853;23;20327;-90
2022/05/11 01:39:04;;;;;;;5.70;3.90;;;13.20;99.90;;;;;;6104834;23;20343;-89
2022/05/11 01:41:54;;;;;;;5.25;2.17;;;13.20;99.90;;;;;;6104472;23;20021;-90
2022/05/11 01:44:22;;;;;;;3.38;2.30;;;13.00;99.90;;;;;;6105038;23;20020;-91
2022/05/11 01:46:51;;;;;;;3.05;2.33;;;13.20;99.90;;;;;;6104343;23;20450;-89
2022/05/11 01:49:18;;;;;;;4.57;2.28;;;13.20;99.90;;;;;;6103903;23;20747;-89
2022/05/11 01:51:44;;;;;;;2.53;2.08;;;13.20;99.90;;;;;;6103298;23;20519;-90
2022/05/11 01:54:10;;;;;;;4.50;2.58;;;13.20;99.90;;;;;;6129521;23;20045;-90
2022/05/11 01:56:36;;;;;;;2.57;2.37;;;13.20;99.90;;;;;;6079813;23;20022;-90
2022/05/11 01:59:02;;;;;;;2.28;2.08;;;12.10;99.90;;;;;;6104760;23;20308;-90
2022/05/11 02:01:33;;;;;;;3.08;2.15;;;13.30;99.90;;;;;;6104223;23;20045;-92
2022/05/11 02:04:01;;;;;;;3.08;2.40;;;13.30;99.90;;;;;;6104473;23;20014;-90
2022/05/11 02:09:17;;;;;;;3.20;2.72;;;13.20;99.90;;;;;;6108484;23;20101;-90
2022/05/11 02:11:45;;;;;;;3.28;2.30;;;13.30;99.90;;;;;;6104124;23;20051;-90
2022/05/11 02:14:22;;;;;;;3.13;2.30;;;13.20;99.90;;;;;;6104800;23;20024;-90
2022/05/11 02:19:36;;;;;;;2.33;2.13;;;13.20;99.90;;;;;;6128346;23;20358;-91
2022/05/11 02:22:05;;;;;;;3.13;2.00;;;13.20;99.90;;;;;;6080091;23;20017;-90
2022/05/11 02:24:37;;;;;;;3.38;2.30;;;13.20;99.90;;;;;;6104715;23;20017;-90
2022/05/11 02:27:11;;;;;;;5.10;2.50;;;12.90;99.90;;;;;;6082005;23;20104;-90
2022/05/11 02:29:37;;;;;;;2.80;2.03;;;13.20;99.90;;;;;;6103303;23;20057;-90
2022/05/11 02:32:06;;;;;;;2.63;1.80;;;13.20;99.90;;;;;;6104393;23;20018;-91
2022/05/11 02:37:19;;;;;;;2.47;2.17;;;13.20;99.90;;;;;;6128580;23;20108;-90
2022/05/11 02:39:45;;;;;;;2.83;2.55;;;13.20;99.90;;;;;;6103536;23;20087;-90
2022/05/11 02:42:14;;;;;;;3.40;1.92;;;13.20;99.90;;;;;;6104378;23;20018;-90
2022/05/11 02:44:40;;;;;;;3.58;2.45;;;13.20;99.90;;;;;;6103851;23;20013;-90
2022/05/11 02:47:06;;;;;;;4.15;2.60;;;13.10;99.90;;;;;;6105980;23;20028;-90
2022/05/11 02:49:34;;;;;;;6.32;2.28;;;13.20;99.90;;;;;;6106321;23;20017;-90
2022/05/11 02:52:03;;;;;;;5.68;2.33;;;13.10;99.90;;;;;;6106370;23;20023;-89
2022/05/11 02:54:34;;;;;;;2.58;1.70;;;13.20;99.90;;;;;;6082357;23;20040;-90
2022/05/11 02:57:00;;;;;;;3.40;2.50;;;13.20;99.90;;;;;;6105611;23;20017;-90
2022/05/11 02:59:29;;;;;;;2.30;2.10;;;13.20;99.90;;;;;;6106373;23;20180;-90
2022/05/11 03:01:56;;;;;;;3.58;2.30;;;13.20;99.90;;;;;;6129355;23;20021;-90
2022/05/11 03:04:22;;;;;;;4.95;2.58;;;13.20;99.90;;;;;;6082806;23;20103;-90
2022/05/11 03:06:48;;;;;;;2.60;2.40;;;13.30;99.90;;;;;;6105767;23;20056;-90
2022/05/11 03:09:17;;;;;;;3.53;2.22;;;13.20;99.90;;;;;;6104817;23;20021;-91
2022/05/11 03:11:52;;;;;;;3.75;2.53;;;13.30;99.90;;;;;;6105408;23;20346;-90
2022/05/11 03:14:18;;;;;;;2.05;1.83;;;13.20;99.90;;;;;;6105701;23;20370;-90
2022/05/11 03:16:47;;;;;;;7.20;2.80;;;13.20;99.90;;;;;;6105576;23;20021;-90
2022/05/11 03:19:13;;;;;;;5.20;2.75;;;13.30;99.90;;;;;;6106269;23;20547;-91
2022/05/11 03:21:41;;;;;;;4.73;2.10;;;13.20;99.90;;;;;;6105801;23;20037;-90
2022/05/11 03:24:12;;;;;;;2.85;1.88;;;13.20;99.90;;;;;;6083293;23;20013;-90
2022/05/11 03:26:46;;;;;;;4.88;1.90;;;12.50;99.90;;;;;;6106042;23;20029;-90
2022/05/11 03:29:18;;;;;;;4.03;2.33;;;13.10;99.90;;;;;;6130319;23;20354;-90
2022/05/11 03:34:36;;;;;;;1.98;1.73;;;13.20;99.90;;;;;;6105402;23;20256;-91
2022/05/11 03:34:36;;;;;;;2.80;2.13;;;13.30;99.90;;;;;;6119630;23;20021;-90
2022/05/11 03:37:02;;;;;;;3.47;2.28;;;13.20;99.90;;;;;;6105515;23;20732;-90
2022/05/11 03:39:33;;;;;;;5.07;2.72;;;13.30;99.90;;;;;;6105214;23;20017;-90
2022/05/11 03:41:59;;;;;;;2.47;2.13;;;13.20;99.90;;;;;;6105115;23;20052;-90
2022/05/11 03:44:33;;;;;;;3.92;2.10;;;13.20;99.90;;;;;;6105391;23;20021;-90
2022/05/11 03:47:02;;;;;;;3.33;1.90;;;13.20;99.90;;;;;;6105414;23;20021;-90
2022/05/11 03:49:30;;;;;;;2.65;2.15;;;13.20;99.90;;;;;;6106167;23;20024;-90
2022/05/11 03:52:00;;;;;;;4.15;2.67;;;13.20;99.90;;;;;;6081827;23;20397;-91
2022/05/11 03:54:29;;;;;;;4.05;2.25;;;13.30;99.90;;;;;;6106867;23;20025;-90
2022/05/11 03:57:05;;;;;;;;;;;;;;;;;;;;;
2022/05/11 03:59:41;;;;;;;6.05;2.13;;;13.30;99.90;;;;;;6129754;23;20087;-90
2022/05/11 04:02:07;;;;;;;4.95;2.85;;;13.20;99.90;;;;;;6105087;23;20017;-90
2022/05/11 04:04:35;;;;;;;6.10;2.70;;;13.20;99.90;;;;;;6105369;23;20101;-90
2022/05/11 04:07:04;;;;;;;6.70;2.90;;;13.20;99.90;;;;;;6081738;23;20291;-89
2022/05/11 04:09:30;;;;;;;2.97;2.15;;;13.30;99.90;;;;;;6105661;23;20060;-90
2022/05/11 04:11:58;;;;;;;4.80;2.43;;;13.20;99.90;;;;;;6104791;23;20021;-90
2022/05/11 04:14:29;;;;;;;3.30;2.25;;;13.30;99.90;;;;;;6105604;23;20020;-89
2022/05/11 04:16:59;;;;;;;3.38;2.05;;;12.30;99.90;;;;;;6105177;23;20017;-90
2022/05/11 04:19:34;;;;;;;3.60;2.30;;;13.30;99.90;;;;;;6106032;23;20017;-90
2022/05/11 04:21:59;;;;;;;3.47;2.30;;;13.30;99.90;;;;;;6105120;23;20076;-90
2022/05/11 04:24:28;;;;;;;2.70;2.08;;;13.40;99.90;;;;;;6083254;23;20014;-90
2022/05/11 04:26:54;;;;;;;6.03;2.90;;;13.30;99.90;;;;;;6105218;23;20018;-90
2022/05/11 04:29:23;;;;;;;4.40;2.17;;;13.30;99.90;;;;;;6104551;23;20769;-91
2022/05/11 04:32:15;;;;;;;5.20;2.37;;;13.30;99.90;;;;;;6103620;23;20025;-90
2022/05/11 04:34:41;;;;;;;3.30;2.03;;;13.40;99.90;;;;;;6105414;23;20021;-90
2022/05/11 04:37:18;;;;;;;;;;;;;;;;;;;;;
2022/05/11 04:39:44;;;;;;;4.00;2.22;;;13.40;99.90;;;;;;6128306;23;20020;-90
2022/05/11 04:42:13;;;;;;;3.03;1.88;;;13.40;99.90;;;;;;6103724;23;20017;-90
2022/05/11 04:44:41;;;;;;;2.22;2.03;;;13.50;99.90;;;;;;6092695;23;20020;-89
2022/05/11 04:47:13;;;;;;;5.93;2.83;;;13.50;99.90;;;;;;6104531;23;20018;-89
2022/05/11 04:49:42;;;;;;;6.53;2.40;;;13.50;99.90;;;;;;6093822;23;20024;-89
2022/05/11 04:52:34;;;;;;;4.25;2.47;;;13.50;99.90;;;;;;6104166;23;20022;-89
2022/05/11 04:55:00;;;;;;;3.75;2.25;;;13.50;99.90;;;;;;6102049;23;20060;-90
2022/05/11 04:57:26;;;;;;;2.77;2.20;;;13.50;99.90;;;;;;6105327;23;20083;-89
2022/05/11 04:59:53;;;;;;;3.97;2.80;;;13.60;99.90;;;;;;6105210;23;20300;-90
2022/05/11 05:02:23;;;;;;;4.30;2.85;;;13.60;99.90;;;;;;6104326;23;20022;-90
2022/05/11 05:04:50;;;;;;;3.13;2.55;;;13.60;99.90;;;;;;6104860;23;20469;-89
2022/05/11 05:07:18;;;;;;;3.15;2.47;;;13.60;99.90;;;;;;6104886;23;20017;-90
2022/05/11 05:09:48;;;;;;;4.25;2.65;;;13.70;99.90;;;;;;6104313;23;20092;-89
2022/05/11 05:12:14;;;;;;;2.97;2.08;;;13.60;99.90;;;;;;6079964;23;20024;-90
2022/05/11 05:14:44;;;;;;;6.27;2.40;;;13.60;99.90;;;;;;6104876;23;20350;-89
2022/05/11 05:17:11;;;;;;;4.32;2.55;;;13.70;99.90;;;;;;6104329;23;20036;-89
2022/05/11 05:19:41;;;;;;;4.57;2.70;;;13.80;99.90;;;;;;6105153;23;20505;-89
2022/05/11 05:22:07;;;;;;;5.20;2.88;;;13.80;99.90;;;;;;6104152;23;20331;-90
2022/05/11 05:24:33;;;;;;;5.43;2.28;;;13.80;99.90;;;;;;6081096;23;20024;-89
2022/05/11 05:27:02;;;;;;;2.38;2.15;;;13.80;99.90;;;;;;6104974;23;20025;-91
2022/05/11 05:32:13;;;;;;;4.32;2.78;;;13.80;99.90;;;;;;6128569;23;20320;-89
2022/05/11 05:34:41;;;;;;;;;;;13.80;99.90;;;;;;6105389;23;20017;-89
2022/05/11 05:37:07;;;;;;;;;;;14.00;99.90;;;;;;6104943;23;19955;-90
2022/05/11 05:39:33;;;;;;;4.10;2.17;;;14.00;99.90;;;;;;6108100;23;19971;-90
2022/05/11 05:42:02;;;;;;;6.00;2.67;;;13.90;99.90;;;;;;6104407;23;20018;-89
2022/05/11 05:44:45;;;;;;;4.00;2.42;;;13.90;99.90;;;;;;6060189;23;20072;-89
2022/05/11 05:47:16;;;;;;;4.00;3.30;;;14.00;99.90;;;;;;6080883;23;20049;-90
2022/05/11 05:49:45;;;;;;;2.92;2.22;;;13.90;99.90;;;;;;6129655;23;20088;-89
2022/05/11 05:52:24;;;;;;;3.60;2.35;;;14.00;99.90;;;;;;6103853;23;20022;-89
2022/05/11 05:54:54;;;;;;;4.55;1.83;;;14.00;99.90;;;;;;6108092;23;20014;-90
2022/05/11 05:57:20;;;;;;;3.30;2.13;;;14.10;99.90;;;;;;6128557;23;20017;-90
2022/05/11 05:59:48;;;;;;;7.53;2.40;;;14.00;99.90;;;;;;6080800;23;20056;-90
2022/05/11 06:05:09;;;;;;;3.42;2.55;;;14.10;99.90;;;;;;6108864;23;20018;-92
2022/05/11 06:07:38;;;;;;;2.40;2.13;;;14.20;99.90;;;;;;6104497;23;20024;-90
2022/05/11 06:10:14;;;;;;;3.08;2.67;;;14.20;99.90;;;;;;6104904;23;20017;-92
2022/05/11 06:12:47;;;;;;;4.47;2.60;;;14.20;99.90;;;;;;6106631;23;20462;-94
2022/05/11 06:15:18;;;;;;;3.15;2.78;;;14.20;99.90;;;;;;6129302;23;20024;-93
2022/05/11 06:17:54;;;;;;;4.30;2.92;;;14.20;99.90;;;;;;6105833;23;20021;-92
2022/05/11 06:21:01;;;;;;;10.60;4.03;;;14.30;99.90;;;;;;6090080;23;20018;-96
2022/05/11 06:23:32;;;;;;;4.22;2.38;;;14.40;99.90;;;;;;6113139;23;20453;-96
2022/05/11 06:26:27;;;;;;;4.00;2.90;;;14.40;99.90;;;;;;6115529;23;20020;-96
2022/05/11 06:29:12;;;;;;;4.63;2.35;;;14.60;99.90;;;;;;6087249;23;20021;-96
2022/05/11 06:31:38;;;;;;;3.58;2.78;;;14.50;99.90;;;;;;6059890;23;20105;-90
2022/05/11 06:34:04;;;;;;;4.30;2.20;;;14.60;99.90;;;;;;6082503;23;20053;-90
2022/05/11 06:36:37;;;;;;;2.97;2.40;;;14.60;99.90;;;;;;6105998;23;20282;-91
2022/05/11 06:39:23;;;;;;;3.63;2.55;;;14.20;99.90;;;;;;6082017;23;20022;-93
2022/05/11 06:41:49;;;;;;;5.00;2.45;;;14.60;99.90;;;;;;6105085;23;20338;-91
2022/05/11 06:44:25;;;;;;;5.00;3.25;;;14.80;99.90;;;;;;6104461;23;20017;-91
2022/05/11 06:46:54;;;;;;;6.57;2.42;;;14.10;99.90;;;;;;6081930;23;20401;-93
2022/05/11 06:49:48;;;;;;;3.45;2.50;;;14.90;99.90;;;;;;6104335;23;20013;-93
2022/05/11 06:52:14;;;;;;;4.15;2.45;;;15.00;99.90;;;;;;6103823;23;20026;-90
2022/05/11 07:00:09;;;;;;;2.20;1.63;;;15.00;99.90;;;;;;6088214;23;20057;-90
2022/05/11 07:02:39;;;;;;;6.05;2.47;;;15.00;99.90;;;;;;6103233;23;20017;-92
2022/05/11 07:05:11;;;;;;;3.00;2.30;;;15.00;99.90;;;;;;6129491;23;20052;-92
2022/05/11 07:07:39;;;;;;;2.47;2.28;;;15.00;99.90;;;;;;6105497;23;20028;-90
2022/05/11 07:10:05;;;;;;;4.70;2.03;;;15.10;99.90;;;;;;6129398;23;20207;-92
2022/05/11 07:12:38;;;;;;;3.28;2.78;;;15.20;99.90;;;;;;6104143;23;20014;-92
2022/05/11 07:15:11;;;;;;;3.88;2.10;;;15.10;99.90;;;;;;6130102;23;20024;-93
2022/05/11 07:17:53;;;;;;;5.40;1.95;;;15.30;99.90;;;;;;6104690;23;20032;-93
2022/05/11 07:20:29;;;;;;;6.07;2.50;;;15.40;99.90;;;;;;6104226;23;20337;-92
2022/05/11 07:22:55;;;;;;;7.88;2.38;;;15.60;99.90;;;;;;6104107;23;20028;-95
2022/05/11 07:25:35;;;;;;;;;;;;;;;;;;;;;
2022/05/11 07:28:01;;;;;;;3.20;2.15;;;15.80;99.90;;;;;;6129251;23;20017;-90
2022/05/11 07:30:32;;;;;;;2.58;2.38;;;15.80;99.90;;;;;;6079932;23;20017;-90
2022/05/11 07:33:02;;;;;;;10.52;2.67;;;16.10;99.90;;;;;;6130143;23;20017;-89
2022/05/11 07:35:31;;;;;;;2.33;1.85;;;16.10;99.90;;;;;;6106144;23;20017;-89
2022/05/11 07:38:00;;;;;;;2.53;1.98;;;16.20;99.90;;;;;;6106545;23;20029;-89
2022/05/11 07:40:26;;;;;;;3.88;2.15;;;16.20;99.90;;;;;;6129852;23;20018;-93
2022/05/11 07:42:52;;;;;;;7.25;2.72;;;16.30;99.90;;;;;;6129981;23;20056;-95
2022/05/11 07:45:25;;;;;;;3.33;1.80;;;16.70;99.90;;;;;;6132055;23;20017;-92
2022/05/11 07:47:59;;;;;;;7.35;2.13;;;16.90;99.90;;;;;;6131718;23;20018;-91
2022/05/11 07:50:25;;;;;;;2.80;1.73;;;16.90;99.90;;;;;;6106369;23;20018;-87
2022/05/11 07:52:53;;;;;;;3.08;2.78;;;16.90;99.90;;;;;;6082085;23;20446;-90
2022/05/11 07:55:20;;;;;;;5.55;2.92;;;17.00;99.90;;;;;;6105478;23;20017;-91
2022/05/11 08:00:31;;;;;;;3.00;1.98;;;17.20;99.90;;;;;;6130379;23;20033;-91
2022/05/11 08:02:57;;;;;;;2.72;2.47;;;17.20;99.90;;;;;;6105918;23;20017;-90
2022/05/11 08:05:32;;;;;;;8.57;2.10;;;17.20;99.90;;;;;;6106159;23;20054;-93
2022/05/11 08:08:01;;;;;;;3.83;2.50;;;17.20;99.90;;;;;;6083714;23;20024;-88
2022/05/11 08:10:31;;;;;;;3.42;2.15;;;17.30;99.90;;;;;;6129937;23;20017;-90
2022/05/11 08:13:05;;;;;;;5.70;2.00;;;17.70;99.90;;;;;;6104523;23;20105;-89
2022/05/11 08:15:34;;;;;;;3.60;2.50;;;18.20;99.90;;;;;;6105785;23;20096;-89
2022/05/11 08:18:00;;;;;;;3.13;2.28;;;18.40;99.90;;;;;;6131092;23;20025;-91
2022/05/11 08:20:33;;;;;;;7.68;2.00;;;18.60;99.90;;;;;;6104485;23;20018;-91
2022/05/11 08:25:50;;;;;;;3.27;1.97;;;19.00;99.90;;;;;;6109472;23;20023;-91
2022/05/11 08:28:22;;;;;;;3.17;1.73;;;18.10;99.90;;;;;;6130654;23;20021;-91
2022/05/11 08:33:43;;;;;;;3.08;2.05;;;19.30;99.90;;;;;;6130933;23;20025;-92
2022/05/11 08:36:13;;;;;;;2.25;1.77;;;19.00;99.90;;;;;;6106122;23;20115;-91
2022/05/11 08:38:45;;;;;;;5.80;1.60;;;19.30;99.90;;;;;;6106434;23;20018;-91
2022/05/11 08:41:26;;;;;;;3.25;2.38;;;19.50;99.90;;;;;;6082987;23;20069;-92
2022/05/11 08:44:03;;;;;;;2.92;1.58;;;19.50;99.90;;;;;;6104061;23;20144;-93
2022/05/11 08:46:54;;;;;;;5.60;2.22;;;19.40;99.90;;;;;;6105524;23;20032;-93
2022/05/11 08:49:42;;;;;;;5.68;1.70;;;19.40;99.90;;;;;;6130505;23;20140;-89
2022/05/11 08:52:26;;;;;;;2.72;1.38;;;19.30;99.90;;;;;;6129229;23;20017;-92
2022/05/11 08:55:08;;;;;;;6.47;2.45;;;19.10;99.90;;;;;;6107001;23;20025;-93
2022/05/11 08:57:36;;;;;;;3.88;1.60;;;19.00;99.90;;;;;;6104197;23;20025;-94
2022/05/11 09:00:15;;;;;;;4.05;1.75;;;18.90;99.90;;;;;;6105464;23;20457;-92
2022/05/11 09:03:06;;;;;;;5.55;1.60;;;18.80;99.90;;;;;;6105521;23;20024;-93
2022/05/11 09:05:34;;;;;;;3.10;1.88;;;18.60;99.90;;;;;;6129551;23;20338;-91
2022/05/11 09:08:07;;;;;;;2.92;1.85;;;18.50;99.90;;;;;;6104949;23;20022;-90
2022/05/11 09:10:38;;;;;;;3.03;1.80;;;18.70;99.90;;;;;;6105704;23;20104;-92
2022/05/11 09:13:07;;;;;;;5.78;2.35;;;19.20;99.90;;;;;;6129676;23;20045;-92
2022/05/11 09:15:54;;;;;;;6.25;1.95;;;19.00;99.90;;;;;;6105232;23;20330;-91
2022/05/11 09:18:34;;;;;;;2.83;2.35;;;19.20;99.90;;;;;;6104445;23;20104;-92
2022/05/11 09:21:19;;;;;;;5.63;2.05;;;19.30;99.90;;;;;;6105458;23;20022;-94
2022/05/11 09:24:09;;;;;;;4.38;1.73;;;19.40;99.90;;;;;;6139066;23;20018;-92
2022/05/11 09:26:44;;;;;;;2.92;1.75;;;19.50;99.90;;;;;;6128029;23;20045;-93
2022/05/11 09:29:16;;;;;;;4.28;2.25;;;19.60;99.90;;;;;;6104195;23;20021;-91
2022/05/11 09:31:46;;;;;;;6.90;1.30;;;19.80;99.90;;;;;;6104420;23;20021;-90
2022/05/11 09:34:22;;;;;;;2.10;1.48;;;19.40;99.90;;;;;;6081034;23;20025;-90
2022/05/11 09:36:56;;;;;;;7.10;2.50;;;19.30;99.90;;;;;;6103583;23;20098;-90
2022/05/11 09:39:23;;;;;;;7.80;1.92;;;19.20;99.90;;;;;;6104593;23;20021;-90
2022/05/11 09:41:54;;;;;;;2.90;1.00;;;19.10;99.90;;;;;;6104904;23;20018;-92
2022/05/11 09:44:23;;;;;;;2.53;1.92;;;19.10;99.90;;;;;;6105725;23;20014;-90
2022/05/11 09:46:50;;;;;;;2.25;1.48;;;19.20;99.90;;;;;;6104425;23;20017;-94
2022/05/11 09:49:21;;;;;;;5.68;2.00;;;19.30;99.90;;;;;;6129433;23;20072;-90
2022/05/11 09:51:48;;;;;;;4.45;2.90;;;19.40;99.90;;;;;;6104542;23;20021;-92
2022/05/11 09:54:35;;;;;;;6.30;1.50;;;19.40;99.90;;;;;;6127946;23;20021;-93
2022/05/11 09:57:09;;;;;;;1.92;1.25;;;19.70;98.50;;;;;;6105251;23;20072;-96
2022/05/11 09:59:56;;;;;;;2.20;1.38;;;19.60;99.10;;;;;;6109733;23;20028;-91
2022/05/11 10:02:41;;;;;;;1.95;1.48;;;19.60;97.80;;;;;;6105098;23;20116;-92
2022/05/11 10:05:27;;;;;;;1.60;1.40;;;18.90;96.80;;;;;;6104854;23;20026;-94
2022/05/11 10:08:07;;;;;;;6.13;1.42;;;19.60;96.80;;;;;;6080177;23;20024;-92
2022/05/11 10:11:04;;;;;;;2.20;1.48;;;18.70;97.00;;;;;;6104785;23;20029;-94
2022/05/11 10:23:50;;;;;;;2.05;1.10;;;19.70;95.70;;;;;;6120105;23;20032;-93
2022/05/11 10:26:30;;;;;;;2.63;1.25;;;19.50;95.30;;;;;;6103877;23;20014;-89
2022/05/11 10:29:17;;;;;;;2.92;1.35;;;19.60;95.30;;;;;;6102951;23;20064;-90
2022/05/11 10:32:10;;;;;;;2.50;1.10;;;19.80;95.40;;;;;;6105802;23;20021;-93
2022/05/11 10:35:01;;;;;;;2.35;0.90;;;19.80;94.10;;;;;;6104542;23;20025;-90
2022/05/11 10:38:01;;;;;;;1.02;0.90;;;19.70;93.70;;;;;;6129563;23;20022;-93
2022/05/11 10:40:52;;;;;;;1.80;1.35;;;18.80;92.50;;;;;;6104028;23;20025;-88
2022/05/11 10:44:00;;;;;;;4.25;0.70;;;19.70;93.40;;;;;;6101417;23;20080;-95
2022/05/11 10:46:54;;;;;;;9.80;1.23;;;20.20;92.20;;;;;;6103257;23;20028;-92
2022/05/11 10:49:26;;;;;;;3.90;0.98;;;20.50;91.90;;;;;;6102636;23;20025;-92
2022/05/11 10:52:45;;;;;;;4.78;1.10;;;20.90;91.90;;;;;;6102096;23;20061;-94
2022/05/11 10:55:44;;;;;;;3.63;1.20;;;20.90;89.00;;;;;;6128166;23;20075;-94
2022/05/11 10:58:33;;;;;;;2.47;0.80;;;20.80;90.70;;;;;;6126488;23;20584;-92
2022/05/11 11:01:45;;;;;;;;;;;;;;;;;;;;;
2022/05/11 11:04:50;;;;;;;3.28;1.67;;;21.00;89.10;;;;;;6124386;23;20450;-92
2022/05/11 11:07:26;;;;;;;2.88;0.95;;;20.50;90.30;;;;;;6103842;23;20028;-92
2022/05/11 11:10:12;;;;;;;3.92;1.40;;;21.10;91.10;;;;;;6104096;23;20025;-94
2022/05/11 11:12:53;;;;;;;6.07;2.00;;;21.50;90.60;;;;;;6107145;23;20029;-92
2022/05/11 11:16:07;;;;;;;;;;;;;;;;;;;;;
2022/05/11 11:18:37;;;;;;;;;;;22.00;89.60;;;;;;6118613;23;20017;-90
2022/05/11 11:21:08;;;;;;;1.70;1.30;;;22.10;87.90;;;;;;6155939;23;19917;-94
2022/05/11 11:23:43;;;;;;;3.92;1.60;;;22.40;90.30;;;;;;6156008;23;20021;-90
2022/05/11 11:26:12;;;;;;;2.42;1.40;;;22.50;87.80;;;;;;6104957;23;20013;-89
2022/05/11 11:32:01;;;;;;;1.65;1.02;;;21.10;86.40;;;;;;6129540;23;20025;-90
2022/05/11 11:34:39;;;;;;;1.25;0.88;;;21.80;85.40;;;;;;6105720;23;20017;-92
2022/05/11 11:37:29;;;;;;;6.30;1.48;;;21.20;87.40;;;;;;6106349;23;20032;-93
2022/05/11 11:40:13;;;;;;;1.50;1.40;;;21.60;87.20;;;;;;6105936;23;20017;-93
2022/05/11 11:42:40;;;;;;;3.28;1.30;;;21.10;87.70;;;;;;6105850;23;20476;-90
2022/05/11 11:45:22;;;;;;;;;;;;;;;;;;;;;
2022/05/11 11:48:25;;;;;;;2.03;1.88;;;21.50;86.50;;;;;;6129846;23;20052;-95
2022/05/11 11:50:59;;;;;;;4.88;1.20;;;21.70;85.60;;;;;;6052204;23;20022;-96
2022/05/11 11:53:38;;;;;;;2.78;1.30;;;21.70;86.50;;;;;;6106990;23;20021;-94
2022/05/11 11:56:41;;;;;;;4.35;1.83;;;21.90;86.10;;;;;;6131349;23;20017;-96
2022/05/11 11:59:37;;;;;;;2.05;1.80;;;22.90;85.20;;;;;;6087214;23;20017;-93
2022/05/11 12:02:33;;;;;;;1.90;1.10;;;22.00;84.30;;;;;;6128895;23;20092;-92
2022/05/11 12:05:27;;;;;;;2.45;1.20;;;22.10;84.70;;;;;;6074184;23;20097;-93
2022/05/11 12:16:56;;;;;;;1.75;1.55;;;22.40;84.50;;;;;;6147282;23;20053;-95
2022/05/11 12:19:35;;;;;;;2.05;1.58;;;22.70;82.40;;;;;;6128018;23;20048;-94
2022/05/11 12:22:12;;;;;;;4.70;1.80;;;22.30;83.40;;;;;;6115851;23;20018;-93
2022/05/11 12:24:48;;;;;;;1.75;1.58;;;22.20;83.80;;;;;;6108189;23;20017;-95
2022/05/11 12:27:24;;;;;;;4.30;1.15;;;22.30;84.30;;;;;;6106728;23;20018;-91
2022/05/11 12:30:02;;;;;;;4.32;1.80;;;22.40;81.70;;;;;;6141304;23;20049;-92
2022/05/11 12:32:30;;;;;;;3.28;1.48;;;22.20;82.10;;;;;;6129754;23;20451;-91
2022/05/11 12:35:18;;;;;;;2.03;1.15;;;22.20;83.80;;;;;;6107141;23;20017;-96
2022/05/11 12:38:03;;;;;;;3.08;1.55;;;22.10;82.20;;;;;;6134951;23;20076;-96
2022/05/11 12:40:41;;;;;;;8.68;1.98;;;22.10;82.30;;;;;;6138267;23;20489;-94
2022/05/11 12:43:26;;;;;;;2.83;1.20;;;22.60;81.30;;;;;;6112519;23;20022;-92
2022/05/11 12:46:00;;;;;;;2.35;1.60;;;22.80;82.30;;;;;;6137265;23;20092;-95
2022/05/11 12:48:33;;;;;;;7.05;1.40;;;23.00;82.10;;;;;;6134734;23;20080;-94
2022/05/11 12:53:53;;;;;;;6.80;2.65;;;23.00;80.10;;;;;;6170103;23;20107;-93
2022/05/11 12:56:34;;;;;;;4.85;1.58;;;22.80;80.10;;;;;;6201805;23;20031;-96
2022/05/11 12:59:30;;;;;;;;;;;;;;;;;;;;;
2022/05/11 13:02:21;;;;;;;3.22;1.40;;;21.60;80.50;;;;;;6189392;23;20017;-96
2022/05/11 13:05:08;;;;;;;1.40;1.10;;;22.70;80.50;;;;;;6165229;23;20025;-95
2022/05/11 13:07:53;;;;;;;;;;;22.80;79.10;;;;;;6193587;23;20028;-95
2022/05/11 13:10:31;;;;;;;2.95;1.35;;;22.10;78.20;;;;;;6166585;23;19916;-96
2022/05/11 13:13:02;;;;;;;2.55;1.30;;;21.90;79.60;;;;;;6170089;23;20025;-96
2022/05/11 13:15:45;;;;;;;3.63;1.13;;;21.60;79.10;;;;;;6194993;23;20021;-95
2022/05/11 13:18:26;;;;;;;3.15;1.30;;;22.10;78.70;;;;;;6162485;23;20083;-94
2022/05/11 13:20:54;;;;;;;3.72;1.52;;;22.00;79.20;;;;;;6159797;23;20021;-93
2022/05/11 13:23:34;;;;;;;4.28;1.88;;;22.10;79.90;;;;;;6158987;23;20108;-93
2022/05/11 13:26:30;;;;;;;1.83;1.17;;;22.20;79.80;;;;;;6184304;23;20017;-95
2022/05/11 13:29:01;;;;;;;2.63;1.35;;;22.10;79.10;;;;;;6154183;23;20021;-96
2022/05/11 13:31:38;;;;;;;6.07;1.70;;;22.20;79.40;;;;;;6164178;23;20060;-96
2022/05/11 13:34:29;;;;;;;2.47;1.65;;;22.40;78.50;;;;;;6166763;23;20028;-96
2022/05/11 13:37:26;;;;;;;4.25;1.42;;;22.20;78.00;;;;;;6163354;23;20028;-96
2022/05/11 13:39:56;;;;;;;4.67;1.90;;;21.90;77.20;;;;;;6131135;23;20388;-96
2022/05/11 13:42:32;;;;;;;4.07;2.00;;;21.90;78.50;;;;;;6163653;23;20024;-94
2022/05/11 13:45:08;;;;;;;5.70;1.60;;;22.00;78.80;;;;;;6136786;23;20095;-92
2022/05/11 13:50:27;;;;;;;1.88;1.58;;;22.10;79.00;;;;;;6184250;23;20071;-95
2022/05/11 13:53:05;;;;;;;3.90;2.22;;;21.80;79.30;;;;;;6159359;23;20457;-92
2022/05/11 13:55:39;;;;;;;8.43;1.77;;;22.00;79.80;;;;;;6159951;23;20615;-96
2022/05/11 13:58:36;;;;;;;3.03;1.63;;;21.20;79.00;;;;;;6160322;23;20013;-95
2022/05/11 14:01:25;;;;;;;5.13;1.50;;;22.40;78.40;;;;;;6185476;23;20017;-94
2022/05/11 14:03:56;;;;;;;4.07;1.50;;;22.60;78.00;;;;;;6186115;23;20013;-94
2022/05/11 14:07:00;;;;;;;6.10;1.35;;;22.20;78.70;;;;;;6160976;23;20013;-96
2022/05/11 14:09:30;;;;;;;3.10;1.40;;;22.10;78.50;;;;;;6106669;23;20013;-94
2022/05/11 14:12:03;;;;;;;3.13;1.90;;;22.00;79.10;;;;;;6184024;23;20021;-95
2022/05/11 14:14:29;;;;;;;3.40;1.48;;;21.30;79.10;;;;;;6186547;23;20100;-96
2022/05/11 14:16:56;;;;;;;2.55;1.23;;;22.00;79.60;;;;;;6159747;23;20045;-94
2022/05/11 14:22:24;;;;;;;4.13;1.77;;;21.60;79.80;;;;;;6167241;23;20461;-95
2022/05/11 14:24:58;;;;;;;1.48;1.38;;;21.60;80.40;;;;;;6160140;23;20044;-96
2022/05/11 14:27:24;;;;;;;4.60;1.75;;;21.50;81.20;;;;;;6182248;23;20017;-95
2022/05/11 14:29:51;;;;;;;2.30;1.63;;;21.60;80.90;;;;;;6158942;23;20017;-89
2022/05/11 14:32:32;;;;;;;4.88;2.63;;;22.00;80.60;;;;;;6132897;23;20021;-90
2022/05/11 14:34:58;;;;;;;5.45;2.63;;;22.20;80.00;;;;;;6182785;23;20430;-89
2022/05/11 14:37:24;;;;;;;;;;;22.20;79.90;;;;;;6157617;23;20016;-89